createdAt,value
2019-05-21T00:00:50.486Z,97255.88
2019-05-21T00:03:19.023Z,97254.88
2019-05-21T00:05:47.531Z,97250.24
2019-05-21T00:08:15.991Z,97250.86
2019-05-21T00:10:44.499Z,97251.95
2019-05-21T00:13:12.982Z,97259.00
2019-05-21T00:15:41.490Z,97250.02
2019-05-21T00:18:10.031Z,97250.56
2019-05-21T00:20:38.500Z,97261.46
2019-05-21T00:23:07.014Z,97252.27
2019-05-21T00:25:35.562Z,97257.87
2019-05-21T00:28:27.495Z,97256.31
2019-05-21T00:31:32.505Z,97258.92
2019-05-21T00:34:44.020Z,97258.70
2019-05-21T00:37:44.062Z,97244.01
2019-05-21T00:40:48.966Z,97239.11
2019-05-21T00:43:19.579Z,97237.60
2019-05-21T00:45:48.038Z,97235.44
2019-05-21T00:48:16.546Z,97234.63
2019-05-21T00:50:45.029Z,97235.19
2019-05-21T00:53:13.518Z,97240.15
2019-05-21T00:55:42.053Z,97242.59
2019-05-21T00:58:10.502Z,97243.63
2019-05-21T01:00:39.173Z,97240.30
2019-05-21T01:03:07.643Z,97241.67
2019-05-21T01:05:36.202Z,97239.91
2019-05-21T01:08:05.029Z,97243.94
2019-05-21T01:10:33.597Z,97238.59
2019-05-21T01:13:02.072Z,97240.98
2019-05-21T01:15:30.559Z,97239.98
2019-05-21T01:17:59.034Z,97246.30
2019-05-21T01:20:27.539Z,97240.89
2019-05-21T01:22:56.182Z,97240.97
2019-05-21T01:25:24.756Z,97246.61
2019-05-21T01:27:53.230Z,97247.16
2019-05-21T01:30:21.713Z,97251.54
2019-05-21T01:32:50.208Z,97241.63
2019-05-21T01:35:18.729Z,97241.11
2019-05-21T01:37:47.207Z,97243.67
2019-05-21T01:40:15.712Z,97244.52
2019-05-21T01:42:44.182Z,97246.72
2019-05-21T01:45:13.053Z,97245.72
2019-05-21T01:47:41.527Z,97240.98
2019-05-21T01:50:10.075Z,97246.34
2019-05-21T01:52:38.578Z,97242.33
2019-05-21T01:55:07.227Z,97244.39
2019-05-21T01:57:35.705Z,97257.37
2019-05-21T02:00:06.968Z,97257.77
2019-05-21T02:02:35.470Z,97255.92
2019-05-21T02:05:06.426Z,97253.36
2019-05-21T02:07:34.934Z,97255.69
2019-05-21T02:10:04.859Z,97254.61
2019-05-21T02:12:33.431Z,97251.81
2019-05-21T02:15:01.909Z,97251.86
2019-05-21T02:17:30.461Z,97255.80
2019-05-21T02:19:58.937Z,97253.39
2019-05-21T02:22:27.501Z,97242.53
2019-05-21T02:24:55.978Z,97239.59
2019-05-21T02:27:24.449Z,97245.14
2019-05-21T02:29:52.947Z,97235.16
2019-05-21T02:32:21.419Z,97234.83
2019-05-21T02:34:49.973Z,97238.84
2019-05-21T02:37:18.442Z,97233.96
2019-05-21T02:39:46.924Z,97235.42
2019-05-21T02:42:15.399Z,97230.28
2019-05-21T02:44:43.970Z,97233.06
2019-05-21T02:47:12.518Z,97230.80
2019-05-21T02:49:40.989Z,97227.84
2019-05-21T02:52:09.543Z,97233.66
2019-05-21T02:54:41.367Z,97229.00
2019-05-21T02:57:08.308Z,97236.52
2019-05-21T02:59:37.184Z,97240.28
2019-05-21T03:02:07.327Z,97236.14
2019-05-21T03:04:35.805Z,97242.77
2019-05-21T03:07:20.069Z,97241.98
2019-05-21T03:09:49.513Z,97242.77
2019-05-21T03:12:19.016Z,97248.36
2019-05-21T03:14:47.838Z,97244.94
2019-05-21T03:17:16.254Z,97235.41
2019-05-21T03:19:44.761Z,97243.42
2019-05-21T03:22:13.310Z,97239.36
2019-05-21T03:24:41.791Z,97241.09
2019-05-21T03:27:10.325Z,97236.37
2019-05-21T03:29:38.828Z,97233.59
2019-05-21T03:32:07.363Z,97239.22
2019-05-21T03:34:35.885Z,97242.55
2019-05-21T03:37:04.993Z,97246.78
2019-05-21T03:39:33.463Z,97239.46
2019-05-21T03:42:02.275Z,97235.92
2019-05-21T03:44:30.822Z,97241.39
2019-05-21T03:46:59.348Z,97242.41
2019-05-21T03:49:27.836Z,97239.84
2019-05-21T03:51:56.312Z,97236.22
2019-05-21T03:54:24.812Z,97228.06
2019-05-21T03:56:53.279Z,97234.41
2019-05-21T03:59:21.837Z,97237.76
2019-05-21T04:01:50.383Z,97233.21
2019-05-21T04:04:18.902Z,97236.10
2019-05-21T04:06:51.979Z,97236.08
2019-05-21T04:09:17.592Z,97228.63
2019-05-21T04:11:46.093Z,97239.33
2019-05-21T04:14:16.186Z,97241.33
2019-05-21T04:16:49.450Z,97244.47
2019-05-21T04:19:19.569Z,97255.63
2019-05-21T04:21:48.095Z,97253.36
2019-05-21T04:24:16.571Z,97250.86
2019-05-21T04:26:45.046Z,97246.65
2019-05-21T04:29:13.555Z,97251.26
2019-05-21T04:31:42.032Z,97251.72
2019-05-21T04:34:10.541Z,97244.66
2019-05-21T04:36:39.036Z,97253.36
2019-05-21T04:39:07.680Z,97248.94
2019-05-21T04:41:36.193Z,97257.91
2019-05-21T04:44:05.056Z,97251.04
2019-05-21T04:46:33.595Z,97251.79
2019-05-21T04:49:02.080Z,97249.97
2019-05-21T04:51:30.586Z,97255.31
2019-05-21T04:53:59.088Z,97252.89
2019-05-21T04:56:27.579Z,97258.44
2019-05-21T04:58:56.083Z,97256.58
2019-05-21T05:01:24.555Z,97261.23
2019-05-21T05:03:53.062Z,97260.77
2019-05-21T05:06:21.548Z,97255.70
2019-05-21T05:08:50.034Z,97254.55
2019-05-21T05:11:18.541Z,97252.31
2019-05-21T05:13:47.046Z,97251.41
2019-05-21T05:16:15.495Z,97254.78
2019-05-21T05:18:43.971Z,97251.17
2019-05-21T05:21:12.460Z,97253.75
2019-05-21T05:23:40.934Z,97245.73
2019-05-21T05:26:09.441Z,97249.78
2019-05-21T05:28:37.966Z,97257.86
2019-05-21T05:31:06.450Z,97253.22
2019-05-21T05:33:34.934Z,97253.02
2019-05-21T05:36:03.416Z,97251.04
2019-05-21T05:38:31.913Z,97251.86
2019-05-21T05:41:00.384Z,97259.41
2019-05-21T05:43:28.892Z,97254.00
2019-05-21T05:45:57.434Z,97261.56
2019-05-21T05:48:26.615Z,97259.23
2019-05-21T05:50:59.135Z,97256.65
2019-05-21T05:53:27.619Z,97261.62
2019-05-21T05:55:56.095Z,97261.62
2019-05-21T05:58:24.777Z,97260.19
2019-05-21T06:00:53.290Z,97253.88
2019-05-21T06:03:21.750Z,97256.39
2019-05-21T06:05:50.256Z,97251.68
2019-05-21T06:08:18.744Z,97245.16
2019-05-21T06:10:47.266Z,97248.87
2019-05-21T06:13:15.767Z,97250.05
2019-05-21T06:15:44.284Z,97248.31
2019-05-21T06:18:12.768Z,97247.23
2019-05-21T06:20:41.238Z,97246.73
2019-05-21T06:23:09.810Z,97257.49
2019-05-21T06:25:38.344Z,97262.16
2019-05-21T06:28:06.930Z,97251.23
2019-05-21T06:30:35.396Z,97264.54
2019-05-21T06:33:03.960Z,97261.02
2019-05-21T06:35:32.451Z,97262.80
2019-05-21T06:38:16.734Z,97255.95
2019-05-21T06:40:31.181Z,97252.59
2019-05-21T06:42:59.666Z,97258.72
2019-05-21T06:45:28.354Z,97261.75
2019-05-21T06:47:56.855Z,97257.59
2019-05-21T06:50:25.341Z,97265.62
2019-05-21T06:52:53.823Z,97263.61
2019-05-21T06:55:22.325Z,97262.47
2019-05-21T06:57:50.794Z,97257.55
2019-05-21T07:00:19.566Z,97261.70
2019-05-21T07:02:48.091Z,97264.16
2019-05-21T07:05:16.576Z,97263.19
2019-05-21T07:07:45.067Z,97258.94
2019-05-21T07:10:14.273Z,97267.30
2019-05-21T07:12:42.762Z,97265.45
2019-05-21T07:15:11.409Z,97260.94
2019-05-21T07:17:39.859Z,97263.45
2019-05-21T07:20:09.696Z,97265.62
2019-05-21T07:22:38.143Z,97262.89
2019-05-21T07:25:07.077Z,97265.43
2019-05-21T07:27:35.663Z,97260.70
2019-05-21T07:30:07.307Z,97265.56
2019-05-21T07:32:35.831Z,97257.58
2019-05-21T07:35:06.122Z,97259.60
2019-05-21T07:37:34.605Z,97267.05
2019-05-21T07:40:03.094Z,97262.84
2019-05-21T07:42:31.570Z,97265.42
2019-05-21T07:45:00.039Z,97260.60
2019-05-21T07:47:28.582Z,97260.62
2019-05-21T07:49:57.052Z,97261.87
2019-05-21T07:52:25.534Z,97267.54
2019-05-21T07:54:54.012Z,97262.33
2019-05-21T07:57:22.494Z,97267.52
2019-05-21T07:59:50.968Z,97263.39
2019-05-21T08:02:19.476Z,97259.19
2019-05-21T08:04:48.064Z,97256.77
2019-05-21T08:07:16.571Z,97260.25
2019-05-21T08:09:45.038Z,97259.88
2019-05-21T08:12:35.442Z,97250.54
2019-05-21T08:14:43.754Z,97250.14
2019-05-21T08:17:12.223Z,97260.57
2019-05-21T08:19:40.723Z,97252.05
2019-05-21T08:22:09.190Z,97248.95
2019-05-21T08:24:37.690Z,97248.44
2019-05-21T08:27:06.228Z,97247.23
2019-05-21T08:29:34.722Z,97247.70
2019-05-21T08:32:03.270Z,97245.64
2019-05-21T08:34:31.766Z,97254.61
2019-05-21T08:37:00.265Z,97247.03
2019-05-21T08:39:29.450Z,97240.55
2019-05-21T08:41:58.101Z,97235.38
2019-05-21T08:44:26.611Z,97238.37
2019-05-21T08:46:57.390Z,97244.42
2019-05-21T08:49:25.885Z,97243.31
2019-05-21T08:51:54.351Z,97239.42
2019-05-21T08:54:40.716Z,97241.56
2019-05-21T08:57:09.256Z,97235.78
2019-05-21T08:59:37.766Z,97233.93
2019-05-21T09:02:06.223Z,97242.91
2019-05-21T09:04:45.830Z,97242.34
2019-05-21T09:07:05.260Z,97239.34
2019-05-21T09:09:49.445Z,97246.78
2019-05-21T09:12:04.274Z,97241.41
2019-05-21T09:14:33.851Z,97241.55
2019-05-21T09:17:02.319Z,97241.03
2019-05-21T09:19:30.852Z,97245.22
2019-05-21T09:21:59.326Z,97243.52
2019-05-21T09:24:27.796Z,97247.21
2019-05-21T09:26:56.288Z,97246.61
2019-05-21T09:29:24.766Z,97247.42
2019-05-21T09:31:53.236Z,97249.41
2019-05-21T09:34:21.707Z,97259.27
2019-05-21T09:36:50.282Z,97260.31
2019-05-21T09:39:18.746Z,97260.22
2019-05-21T09:41:47.229Z,97258.32
2019-05-21T09:44:15.715Z,97257.08
2019-05-21T09:46:44.253Z,97257.66
2019-05-21T09:49:12.751Z,97251.09
2019-05-21T09:51:41.287Z,97253.48
2019-05-21T09:54:09.770Z,97254.16
2019-05-21T09:56:38.242Z,97248.14
2019-05-21T09:59:22.599Z,97256.55
2019-05-21T10:02:01.687Z,97252.34
2019-05-21T10:04:30.222Z,97256.23
2019-05-21T10:06:58.743Z,97255.27
2019-05-21T10:09:27.251Z,97249.34
2019-05-21T10:11:55.725Z,97253.72
2019-05-21T10:14:24.237Z,97247.50
2019-05-21T10:16:52.768Z,97247.58
2019-05-21T10:19:21.266Z,97241.30
2019-05-21T10:21:49.844Z,97244.53
2019-05-21T10:24:18.395Z,97239.84
2019-05-21T10:26:47.004Z,97240.92
2019-05-21T10:29:15.532Z,97243.33
2019-05-21T10:31:44.104Z,97246.33
2019-05-21T10:34:13.466Z,97240.55
2019-05-21T10:36:42.077Z,97234.84
2019-05-21T10:39:10.917Z,97238.00
2019-05-21T10:41:39.498Z,97238.00
2019-05-21T10:44:08.070Z,97241.98
2019-05-21T10:46:36.693Z,97241.30
2019-05-21T10:49:05.430Z,97235.03
2019-05-21T10:51:33.933Z,97237.06
2019-05-21T10:54:03.612Z,97239.09
2019-05-21T10:56:46.724Z,97235.78
2019-05-21T10:59:02.476Z,97236.63
2019-05-21T11:01:49.290Z,97235.75
2019-05-21T11:04:22.663Z,97227.03
2019-05-21T11:06:51.301Z,97231.58
2019-05-21T11:09:21.559Z,97230.09
2019-05-21T11:11:50.102Z,97228.02
2019-05-21T11:14:18.648Z,97232.88
2019-05-21T11:16:47.187Z,97231.53
2019-05-21T11:19:15.757Z,97226.87
2019-05-21T11:21:44.221Z,97230.52
2019-05-21T11:24:12.803Z,97233.48
2019-05-21T11:26:41.302Z,97219.41
2019-05-21T11:29:09.787Z,97223.70
2019-05-21T11:31:38.379Z,97224.25
2019-05-21T11:34:07.098Z,97226.08
2019-05-21T11:36:37.213Z,97220.47
2019-05-21T11:39:07.819Z,97223.53
2019-05-21T11:41:36.376Z,97223.75
2019-05-21T11:44:05.353Z,97222.88
2019-05-21T11:46:33.995Z,97216.23
2019-05-21T11:49:02.638Z,97222.37
2019-05-21T11:51:31.173Z,97214.27
2019-05-21T11:53:59.689Z,97219.21
2019-05-21T11:56:28.244Z,97214.56
2019-05-21T11:58:58.253Z,97210.00
2019-05-21T12:01:26.752Z,97211.49
2019-05-21T12:03:55.490Z,97206.94
2019-05-21T12:06:24.121Z,97205.53
2019-05-21T12:08:56.761Z,97196.71
2019-05-21T12:11:22.873Z,97199.34
2019-05-21T12:13:51.357Z,97198.38
2019-05-21T12:16:19.859Z,97201.55
2019-05-21T12:18:48.324Z,97202.14
2019-05-21T12:21:16.829Z,97211.51
2019-05-21T12:23:45.319Z,97208.03
2019-05-21T12:26:13.856Z,97206.81
2019-05-21T12:28:42.365Z,97199.61
2019-05-21T12:31:10.868Z,97208.08
2019-05-21T12:33:40.399Z,97207.12
2019-05-21T12:36:09.027Z,97208.23
2019-05-21T12:38:37.554Z,97199.53
2019-05-21T12:41:06.007Z,97200.62
2019-05-21T12:43:34.508Z,97202.74
2019-05-21T12:46:03.089Z,97198.56
2019-05-21T12:48:31.593Z,97202.24
2019-05-21T12:51:00.135Z,97203.77
2019-05-21T12:53:28.608Z,97202.22
2019-05-21T12:55:57.095Z,97201.18
2019-05-21T12:58:25.593Z,97197.95
2019-05-21T13:00:54.062Z,97196.11
2019-05-21T13:03:22.548Z,97199.99
2019-05-21T13:05:51.186Z,97190.67
2019-05-21T13:08:20.067Z,97190.69
2019-05-21T13:10:48.603Z,97190.13
2019-05-21T13:13:19.954Z,97192.34
2019-05-21T13:15:48.413Z,97195.35
2019-05-21T13:18:16.943Z,97187.42
2019-05-21T13:20:45.451Z,97185.15
2019-05-21T13:23:14.017Z,97190.08
2019-05-21T13:25:42.570Z,97184.09
2019-05-21T13:28:11.039Z,97186.51
2019-05-21T13:30:39.807Z,97184.70
2019-05-21T13:33:08.345Z,97173.91
2019-05-21T13:35:36.944Z,97178.59
2019-05-21T13:38:05.663Z,97180.67
2019-05-21T13:40:34.172Z,97182.56
2019-05-21T13:43:02.753Z,97183.78
2019-05-21T13:45:31.248Z,97179.89
2019-05-21T13:47:59.714Z,97181.78
2019-05-21T13:50:28.225Z,97174.37
2019-05-21T13:52:56.750Z,97183.14
2019-05-21T13:55:25.327Z,97184.36
2019-05-21T13:57:53.853Z,97178.30
2019-05-21T14:00:28.657Z,97175.45
2019-05-21T14:02:57.183Z,97169.33
2019-05-21T14:05:26.270Z,97169.23
2019-05-21T14:07:54.747Z,97166.67
2019-05-21T14:10:23.378Z,97167.38
2019-05-21T14:12:51.953Z,97163.69
2019-05-21T14:15:20.487Z,97168.83
2019-05-21T14:17:49.059Z,97171.33
2019-05-21T14:20:17.975Z,97163.81
2019-05-21T14:22:46.462Z,97171.63
2019-05-21T14:25:15.054Z,97168.03
2019-05-21T14:27:45.314Z,97169.45
2019-05-21T14:30:14.105Z,97167.75
2019-05-21T14:32:42.640Z,97163.76
2019-05-21T14:35:11.252Z,97162.16
2019-05-21T14:37:42.432Z,97164.59
2019-05-21T14:40:10.752Z,97155.53
2019-05-21T14:42:39.703Z,97158.39
2019-05-21T14:45:08.475Z,97159.11
2019-05-21T14:47:36.983Z,97162.77
2019-05-21T14:50:10.131Z,97151.66
2019-05-21T14:52:38.717Z,97155.56
2019-05-21T14:55:10.221Z,97152.15
2019-05-21T14:57:39.631Z,97152.03
2019-05-21T15:00:22.997Z,97145.39
2019-05-21T15:02:51.602Z,97141.47
2019-05-21T15:05:20.058Z,97141.51
2019-05-21T15:07:49.795Z,97141.11
2019-05-21T15:10:20.990Z,97137.14
2019-05-21T15:12:49.460Z,97139.12
2019-05-21T15:15:18.113Z,97138.39
2019-05-21T15:17:46.712Z,97137.14
2019-05-21T15:20:17.658Z,97138.98
2019-05-21T15:22:46.130Z,97128.30
2019-05-21T15:25:14.634Z,97125.06
2019-05-21T15:27:43.182Z,97134.98
2019-05-21T15:30:11.912Z,97132.78
2019-05-21T15:32:40.413Z,97138.53
2019-05-21T15:35:09.261Z,97135.27
2019-05-21T15:37:37.734Z,97138.31
2019-05-21T15:40:06.837Z,97136.35
2019-05-21T15:42:35.392Z,97135.89
2019-05-21T15:45:05.330Z,97135.31
2019-05-21T15:47:33.862Z,97131.27
2019-05-21T15:50:02.331Z,97127.32
2019-05-21T15:52:30.795Z,97127.41
2019-05-21T15:55:06.557Z,97126.59
2019-05-21T15:57:32.222Z,97121.13
2019-05-21T16:00:00.700Z,97120.97
2019-05-21T16:02:30.482Z,97129.38
2019-05-21T16:04:59.748Z,97133.45
2019-05-21T16:07:28.222Z,97127.96
2019-05-21T16:09:56.718Z,97131.16
2019-05-21T16:12:25.211Z,97135.84
2019-05-21T16:14:53.697Z,97133.05
2019-05-21T16:17:22.167Z,97131.31
2019-05-21T16:19:50.670Z,97137.52
2019-05-21T16:22:19.130Z,97130.20
2019-05-21T16:24:47.673Z,97132.48
2019-05-21T16:27:16.150Z,97125.86
2019-05-21T16:29:44.616Z,97133.01
2019-05-21T16:32:13.197Z,97126.24
2019-05-21T16:34:41.728Z,97135.29
2019-05-21T16:37:10.303Z,97131.50
2019-05-21T16:39:38.769Z,97125.64
2019-05-21T16:42:07.286Z,97126.56
2019-05-21T16:44:35.762Z,97125.66
2019-05-21T16:47:04.971Z,97129.66
2019-05-21T16:49:33.530Z,97133.58
2019-05-21T16:52:02.146Z,97129.09
2019-05-21T16:54:30.651Z,97132.91
2019-05-21T16:56:59.125Z,97131.34
2019-05-21T16:59:27.696Z,97135.20
2019-05-21T17:01:56.338Z,97127.48
2019-05-21T17:04:24.821Z,97129.45
2019-05-21T17:06:53.375Z,97127.57
2019-05-21T17:09:22.008Z,97132.83
2019-05-21T17:11:59.582Z,97128.61
2019-05-21T17:14:20.745Z,97137.04
2019-05-21T17:16:49.218Z,97132.03
2019-05-21T17:19:17.688Z,97130.36
2019-05-21T17:21:46.187Z,97122.49
2019-05-21T17:24:14.667Z,97122.09
2019-05-21T17:26:43.223Z,97125.77
2019-05-21T17:29:11.641Z,97120.44
2019-05-21T17:31:40.181Z,97118.30
2019-05-21T17:34:08.666Z,97116.77
2019-05-21T17:36:39.447Z,97111.57
2019-05-21T17:39:08.113Z,97108.45
2019-05-21T17:41:36.582Z,97110.84
2019-05-21T17:44:05.332Z,97114.09
2019-05-21T17:46:33.842Z,97118.98
2019-05-21T17:49:02.316Z,97116.67
2019-05-21T17:51:30.816Z,97132.41
2019-05-21T17:53:59.295Z,97129.97
2019-05-21T17:56:27.805Z,97123.05
2019-05-21T17:58:56.281Z,97138.11
2019-05-21T18:01:24.760Z,97126.72
2019-05-21T18:03:53.377Z,97131.47
2019-05-21T18:06:22.023Z,97132.64
2019-05-21T18:08:50.674Z,97135.23
2019-05-21T18:11:19.471Z,97140.08
2019-05-21T18:13:49.322Z,97139.07
2019-05-21T18:16:18.606Z,97145.48
2019-05-21T18:18:47.345Z,97139.48
2019-05-21T18:21:16.496Z,97145.89
2019-05-21T18:23:45.357Z,97141.67
2019-05-21T18:26:14.003Z,97149.77
2019-05-21T18:28:42.551Z,97166.28
2019-05-21T18:31:11.063Z,97174.77
2019-05-21T18:33:39.529Z,97170.59
2019-05-21T18:36:08.102Z,97164.71
2019-05-21T18:38:36.647Z,97164.71
2019-05-21T18:41:05.191Z,97169.54
2019-05-21T18:43:33.699Z,97177.20
2019-05-21T18:46:02.174Z,97172.80
2019-05-21T18:48:30.800Z,97182.59
2019-05-21T18:50:59.273Z,97185.17
2019-05-21T18:53:27.776Z,97180.94
2019-05-21T18:55:56.253Z,97179.19
2019-05-21T18:58:24.901Z,97176.59
2019-05-21T19:00:53.550Z,97171.73
2019-05-21T19:03:25.774Z,97179.27
2019-05-21T19:05:52.331Z,97190.41
2019-05-21T19:08:20.870Z,97183.16
2019-05-21T19:10:49.395Z,97193.83
2019-05-21T19:13:21.577Z,97231.14
2019-05-21T19:15:50.196Z,97243.77
2019-05-21T19:18:18.785Z,97251.45
2019-05-21T19:20:49.970Z,97255.47
2019-05-21T19:23:18.002Z,97259.20
2019-05-21T19:25:46.555Z,97252.62
2019-05-21T19:28:15.124Z,97251.13
2019-05-21T19:30:43.668Z,97250.25
2019-05-21T19:33:12.142Z,97263.57
2019-05-21T19:35:40.914Z,97262.42
2019-05-21T19:38:09.386Z,97268.21
2019-05-21T19:40:37.896Z,97267.63
2019-05-21T19:43:06.438Z,97262.66
2019-05-21T19:45:35.005Z,97258.42
2019-05-21T19:48:03.564Z,97255.25
2019-05-21T19:50:32.430Z,97258.23
2019-05-21T19:53:00.913Z,97253.23
2019-05-21T19:55:29.698Z,97246.05
2019-05-21T19:57:58.183Z,97251.47
2019-05-21T20:00:28.422Z,97245.64
2019-05-21T20:02:56.899Z,97245.06
2019-05-21T20:05:25.988Z,97234.27
2019-05-21T20:07:54.593Z,97229.09
2019-05-21T20:10:23.435Z,97228.48
2019-05-21T20:12:52.270Z,97214.33
2019-05-21T20:15:20.774Z,97214.33
2019-05-21T20:18:06.176Z,97214.80
2019-05-21T20:20:23.700Z,97205.61
2019-05-21T20:22:52.274Z,97203.77
2019-05-21T20:25:22.584Z,97205.39
2019-05-21T20:27:52.098Z,97199.38
2019-05-21T20:30:22.360Z,97213.94
2019-05-21T20:32:51.896Z,97210.02
2019-05-21T20:35:22.243Z,97214.45
2019-05-21T20:37:52.244Z,97210.77
2019-05-21T20:40:22.118Z,97205.69
2019-05-21T20:42:51.365Z,97206.86
2019-05-21T20:45:21.610Z,97206.75
2019-05-21T20:47:52.298Z,97206.00
2019-05-21T20:50:22.178Z,97205.13
2019-05-21T20:52:51.102Z,97205.39
2019-05-21T20:55:22.663Z,97208.94
2019-05-21T20:57:50.807Z,97206.41
2019-05-21T21:00:23.847Z,97195.14
2019-05-21T21:02:53.056Z,97194.34
2019-05-21T21:05:21.891Z,97191.80
2019-05-21T21:07:51.245Z,97188.72
2019-05-21T21:10:20.034Z,97193.24
2019-05-21T21:12:48.664Z,97189.19
2019-05-21T21:15:17.751Z,97181.64
2019-05-21T21:17:46.408Z,97185.66
2019-05-21T21:20:14.943Z,97185.62
2019-05-21T21:22:43.528Z,97183.81
2019-05-21T21:25:12.615Z,97191.41
2019-05-21T21:27:41.939Z,97187.50
2019-05-21T21:30:10.752Z,97194.44
2019-05-21T21:32:39.968Z,97193.06
2019-05-21T21:35:10.893Z,97191.94
2019-05-21T21:37:39.608Z,97187.26
2019-05-21T21:40:09.990Z,97191.27
2019-05-21T21:42:39.302Z,97192.20
2019-05-21T21:45:08.267Z,97177.42
2019-05-21T21:47:37.430Z,97178.43
2019-05-21T21:50:08.429Z,97171.56
2019-05-21T21:52:36.545Z,97174.18
2019-05-21T21:55:09.021Z,97171.39
2019-05-21T21:57:38.674Z,97172.62
2019-05-21T22:00:19.202Z,97165.42
2019-05-21T22:02:47.748Z,97161.55
2019-05-21T22:05:16.417Z,97166.77
2019-05-21T22:07:45.425Z,97168.06
2019-05-21T22:10:14.184Z,97162.42
2019-05-21T22:12:43.646Z,97174.30
2019-05-21T22:15:12.504Z,97176.01
2019-05-21T22:17:41.040Z,97171.06
2019-05-21T22:20:10.473Z,97178.35
2019-05-21T22:22:39.032Z,97172.92
2019-05-21T22:25:08.678Z,97180.52
2019-05-21T22:27:37.237Z,97171.62
2019-05-21T22:30:07.330Z,97170.00
2019-05-21T22:32:35.782Z,97171.33
2019-05-21T22:35:05.737Z,97172.87
2019-05-21T22:37:34.685Z,97166.30
2019-05-21T22:40:03.969Z,97170.95
2019-05-21T22:42:32.824Z,97172.48
2019-05-21T22:45:08.196Z,97177.12
2019-05-21T22:47:31.907Z,97172.28
2019-05-21T22:50:00.426Z,97159.92
2019-05-21T22:52:28.902Z,97153.94
2019-05-21T22:54:57.366Z,97152.20
2019-05-21T22:57:26.412Z,97152.61
2019-05-21T22:59:54.974Z,97152.98
2019-05-21T23:02:25.086Z,97148.30
2019-05-21T23:04:53.631Z,97153.33
2019-05-21T23:07:22.214Z,97145.09
2019-05-21T23:09:50.691Z,97144.59
2019-05-21T23:12:19.569Z,97147.33
2019-05-21T23:14:48.845Z,97134.45
2019-05-21T23:17:17.317Z,97141.58
2019-05-21T23:19:45.991Z,97139.09
2019-05-21T23:22:18.521Z,97143.41
2019-05-21T23:24:48.292Z,97148.60
2019-05-21T23:27:17.610Z,97153.16
2019-05-21T23:29:46.254Z,97141.92
2019-05-21T23:32:15.297Z,97144.20
2019-05-21T23:34:45.054Z,97142.48
2019-05-21T23:37:16.830Z,97144.09
2019-05-21T23:39:46.538Z,97141.27
2019-05-21T23:42:28.572Z,97133.04
2019-05-21T23:44:45.419Z,97124.98
2019-05-21T23:47:15.645Z,97135.89
2019-05-21T23:49:44.266Z,97132.38
2019-05-21T23:52:13.085Z,97134.17
2019-05-21T23:54:41.550Z,97128.63
2019-05-21T23:57:13.021Z,97129.24
2019-05-21T23:59:42.303Z,97123.70
